sensor_id;sensor_type;location;lat;lon;timestamp;temperature;humidity
51733;DHT22;39139;53.144;6.244;2022-09-09T00:07:18;14.20;99.90
51733;DHT22;39139;53.144;6.244;2022-09-09T00:15:21;14.20;99.90
51733;DHT22;39139;53.144;6.244;2022-09-09T00:18:18;14.20;99.90
51733;DHT22;39139;53.144;6.244;2022-09-09T00:21:05;14.10;99.90
51733;DHT22;39139;53.144;6.244;2022-09-09T00:23:39;14.20;99.90
51733;DHT22;39139;53.144;6.244;2022-09-09T00:26:14;14.50;99.90
51733;DHT22;39139;53.144;6.244;2022-09-09T00:31:39;14.10;99.90
51733;DHT22;39139;53.144;6.244;2022-09-09T00:36:38;14.60;99.90
51733;DHT22;39139;53.144;6.244;2022-09-09T00:39:05;14.20;99.90
51733;DHT22;39139;53.144;6.244;2022-09-09T00:41:50;13.80;99.90
51733;DHT22;39139;53.144;6.244;2022-09-09T00:44:31;13.80;99.90
51733;DHT22;39139;53.144;6.244;2022-09-09T00:50:38;13.80;99.90
51733;DHT22;39139;53.144;6.244;2022-09-09T00:53:18;13.70;99.90
51733;DHT22;39139;53.144;6.244;2022-09-09T00:56:05;13.70;99.90
51733;DHT22;39139;53.144;6.244;2022-09-09T00:58:33;13.80;99.90
51733;DHT22;39139;53.144;6.244;2022-09-09T01:01:09;13.80;99.90
51733;DHT22;39139;53.144;6.244;2022-09-09T01:03:49;13.70;99.90
51733;DHT22;39139;53.144;6.244;2022-09-09T01:06:32;13.50;99.90
51733;DHT22;39139;53.144;6.244;2022-09-09T01:16:59;13.50;99.90
51733;DHT22;39139;53.144;6.244;2022-09-09T01:19:40;13.60;99.90
51733;DHT22;39139;53.144;6.244;2022-09-09T01:22:25;13.80;99.90
51733;DHT22;39139;53.144;6.244;2022-09-09T01:25:07;13.50;99.90
51733;DHT22;39139;53.144;6.244;2022-09-09T01:27:38;13.50;99.90
51733;DHT22;39139;53.144;6.244;2022-09-09T01:30:13;14.30;99.90
51733;DHT22;39139;53.144;6.244;2022-09-09T01:32:49;13.30;99.90
51733;DHT22;39139;53.144;6.244;2022-09-09T01:37:49;14.50;99.90
51733;DHT22;39139;53.144;6.244;2022-09-09T01:40:14;13.40;99.90
51733;DHT22;39139;53.144;6.244;2022-09-09T01:42:40;13.60;99.90
51733;DHT22;39139;53.144;6.244;2022-09-09T01:45:06;13.40;99.90
51733;DHT22;39139;53.144;6.244;2022-09-09T01:47:32;13.40;99.90
51733;DHT22;39139;53.144;6.244;2022-09-09T01:49:58;13.40;99.90
51733;DHT22;39139;53.144;6.244;2022-09-09T01:52:24;13.60;99.90
51733;DHT22;39139;53.144;6.244;2022-09-09T01:54:50;13.30;99.90
51733;DHT22;39139;53.144;6.244;2022-09-09T02:00:04;13.50;99.90
51733;DHT22;39139;53.144;6.244;2022-09-09T02:03:12;13.40;99.90
51733;DHT22;39139;53.144;6.244;2022-09-09T02:08:20;13.50;99.90
51733;DHT22;39139;53.144;6.244;2022-09-09T02:10:59;13.50;99.90
51733;DHT22;39139;53.144;6.244;2022-09-09T02:13:28;13.60;99.90
51733;DHT22;39139;53.144;6.244;2022-09-09T02:16:19;13.90;99.90
51733;DHT22;39139;53.144;6.244;2022-09-09T02:21:31;13.70;99.90
51733;DHT22;39139;53.144;6.244;2022-09-09T02:23:59;13.90;99.90
51733;DHT22;39139;53.144;6.244;2022-09-09T02:26:26;14.10;99.90
51733;DHT22;39139;53.144;6.244;2022-09-09T02:28:55;13.80;99.90
51733;DHT22;39139;53.144;6.244;2022-09-09T02:31:24;13.80;99.90
51733;DHT22;39139;53.144;6.244;2022-09-09T02:34:01;13.90;99.90
51733;DHT22;39139;53.144;6.244;2022-09-09T02:36:31;13.90;99.90
51733;DHT22;39139;53.144;6.244;2022-09-09T02:39:00;14.20;99.90
51733;DHT22;39139;53.144;6.244;2022-09-09T02:41:34;14.00;99.90
51733;DHT22;39139;53.144;6.244;2022-09-09T02:44:00;14.00;99.90
51733;DHT22;39139;53.144;6.244;2022-09-09T02:49:06;14.00;99.90
51733;DHT22;39139;53.144;6.244;2022-09-09T02:54:33;14.00;99.90
51733;DHT22;39139;53.144;6.244;2022-09-09T02:57:03;14.00;99.90
51733;DHT22;39139;53.144;6.244;2022-09-09T02:59:31;14.10;99.90
51733;DHT22;39139;53.144;6.244;2022-09-09T03:01:56;14.10;99.90
51733;DHT22;39139;53.144;6.244;2022-09-09T03:04:22;14.10;99.90
51733;DHT22;39139;53.144;6.244;2022-09-09T03:06:49;14.20;99.90
51733;DHT22;39139;53.144;6.244;2022-09-09T03:09:15;14.50;99.90
51733;DHT22;39139;53.144;6.244;2022-09-09T03:11:40;14.10;99.90
51733;DHT22;39139;53.144;6.244;2022-09-09T03:14:06;14.10;99.90
51733;DHT22;39139;53.144;6.244;2022-09-09T03:16:32;14.10;99.90
51733;DHT22;39139;53.144;6.244;2022-09-09T03:19:00;14.10;99.90
51733;DHT22;39139;53.144;6.244;2022-09-09T03:21:26;14.40;99.90
51733;DHT22;39139;53.144;6.244;2022-09-09T03:23:51;13.30;99.90
51733;DHT22;39139;53.144;6.244;2022-09-09T03:26:17;14.00;99.90
51733;DHT22;39139;53.144;6.244;2022-09-09T03:28:43;14.30;99.90
51733;DHT22;39139;53.144;6.244;2022-09-09T03:31:10;14.10;99.90
51733;DHT22;39139;53.144;6.244;2022-09-09T03:33:37;14.00;99.90
51733;DHT22;39139;53.144;6.244;2022-09-09T03:36:03;14.20;99.90
51733;DHT22;39139;53.144;6.244;2022-09-09T03:38:28;14.00;99.90
51733;DHT22;39139;53.144;6.244;2022-09-09T03:40:56;14.60;99.90
51733;DHT22;39139;53.144;6.244;2022-09-09T03:43:26;14.00;99.90
51733;DHT22;39139;53.144;6.244;2022-09-09T03:45:52;14.00;99.90
51733;DHT22;39139;53.144;6.244;2022-09-09T03:48:18;14.00;99.90
51733;DHT22;39139;53.144;6.244;2022-09-09T03:50:49;14.10;99.90
51733;DHT22;39139;53.144;6.244;2022-09-09T03:53:16;14.00;99.90
51733;DHT22;39139;53.144;6.244;2022-09-09T03:55:47;14.10;99.90
51733;DHT22;39139;53.144;6.244;2022-09-09T03:58:13;14.10;99.90
51733;DHT22;39139;53.144;6.244;2022-09-09T04:00:39;14.10;99.90
51733;DHT22;39139;53.144;6.244;2022-09-09T04:03:08;14.10;99.90
51733;DHT22;39139;53.144;6.244;2022-09-09T04:05:34;14.00;99.90
51733;DHT22;39139;53.144;6.244;2022-09-09T04:08:00;14.10;99.90
51733;DHT22;39139;53.144;6.244;2022-09-09T04:10:25;14.20;99.90
51733;DHT22;39139;53.144;6.244;2022-09-09T04:12:52;14.30;99.90
51733;DHT22;39139;53.144;6.244;2022-09-09T04:15:18;14.20;99.90
51733;DHT22;39139;53.144;6.244;2022-09-09T04:17:43;14.30;99.90
51733;DHT22;39139;53.144;6.244;2022-09-09T04:20:09;14.10;99.90
51733;DHT22;39139;53.144;6.244;2022-09-09T04:22:37;14.40;99.90
51733;DHT22;39139;53.144;6.244;2022-09-09T04:25:05;14.30;99.90
51733;DHT22;39139;53.144;6.244;2022-09-09T04:27:31;14.20;99.90
51733;DHT22;39139;53.144;6.244;2022-09-09T04:29:57;14.40;99.90
51733;DHT22;39139;53.144;6.244;2022-09-09T04:32:23;14.50;99.90
51733;DHT22;39139;53.144;6.244;2022-09-09T04:34:49;14.30;99.90
51733;DHT22;39139;53.144;6.244;2022-09-09T04:37:15;15.40;99.90
51733;DHT22;39139;53.144;6.244;2022-09-09T04:39:40;14.20;99.90
51733;DHT22;39139;53.144;6.244;2022-09-09T04:42:06;14.40;99.90
51733;DHT22;39139;53.144;6.244;2022-09-09T04:44:32;14.30;99.90
51733;DHT22;39139;53.144;6.244;2022-09-09T04:46:57;14.30;99.90
51733;DHT22;39139;53.144;6.244;2022-09-09T04:49:23;14.20;99.90
51733;DHT22;39139;53.144;6.244;2022-09-09T04:51:49;14.20;99.90
51733;DHT22;39139;53.144;6.244;2022-09-09T04:54:15;14.30;99.90
51733;DHT22;39139;53.144;6.244;2022-09-09T04:56:40;14.20;99.90
51733;DHT22;39139;53.144;6.244;2022-09-09T04:59:07;14.20;99.90
51733;DHT22;39139;53.144;6.244;2022-09-09T05:01:33;15.50;99.90
51733;DHT22;39139;53.144;6.244;2022-09-09T05:03:59;14.30;99.90
51733;DHT22;39139;53.144;6.244;2022-09-09T05:06:25;14.40;99.90
51733;DHT22;39139;53.144;6.244;2022-09-09T05:08:50;14.20;99.90
51733;DHT22;39139;53.144;6.244;2022-09-09T05:11:26;14.30;99.90
51733;DHT22;39139;53.144;6.244;2022-09-09T05:13:53;14.40;99.90
51733;DHT22;39139;53.144;6.244;2022-09-09T05:16:20;14.30;99.90
51733;DHT22;39139;53.144;6.244;2022-09-09T05:18:46;14.30;99.90
51733;DHT22;39139;53.144;6.244;2022-09-09T05:21:13;13.80;99.90
51733;DHT22;39139;53.144;6.244;2022-09-09T05:23:40;14.30;99.90
51733;DHT22;39139;53.144;6.244;2022-09-09T05:26:06;14.20;99.90
51733;DHT22;39139;53.144;6.244;2022-09-09T05:28:34;14.30;99.90
51733;DHT22;39139;53.144;6.244;2022-09-09T05:31:04;14.30;99.90
51733;DHT22;39139;53.144;6.244;2022-09-09T05:33:31;14.30;99.90
51733;DHT22;39139;53.144;6.244;2022-09-09T05:36:02;14.00;99.90
51733;DHT22;39139;53.144;6.244;2022-09-09T05:38:28;14.30;99.90
51733;DHT22;39139;53.144;6.244;2022-09-09T05:40:54;14.60;99.90
51733;DHT22;39139;53.144;6.244;2022-09-09T05:43:23;14.20;99.90
51733;DHT22;39139;53.144;6.244;2022-09-09T05:46:02;14.30;99.90
51733;DHT22;39139;53.144;6.244;2022-09-09T05:48:30;14.30;99.90
51733;DHT22;39139;53.144;6.244;2022-09-09T05:50:56;14.30;99.90
51733;DHT22;39139;53.144;6.244;2022-09-09T05:53:22;14.30;99.90
51733;DHT22;39139;53.144;6.244;2022-09-09T05:55:47;14.30;99.90
51733;DHT22;39139;53.144;6.244;2022-09-09T05:58:13;15.20;99.90
51733;DHT22;39139;53.144;6.244;2022-09-09T06:00:40;14.70;99.90
51733;DHT22;39139;53.144;6.244;2022-09-09T06:03:06;14.30;99.90
51733;DHT22;39139;53.144;6.244;2022-09-09T06:05:32;14.30;99.90
51733;DHT22;39139;53.144;6.244;2022-09-09T06:07:58;14.30;99.90
51733;DHT22;39139;53.144;6.244;2022-09-09T06:10:23;14.30;99.90
51733;DHT22;39139;53.144;6.244;2022-09-09T06:12:51;14.40;99.90
51733;DHT22;39139;53.144;6.244;2022-09-09T06:15:17;14.40;99.90
51733;DHT22;39139;53.144;6.244;2022-09-09T06:17:43;14.50;99.90
51733;DHT22;39139;53.144;6.244;2022-09-09T06:20:10;14.30;99.90
51733;DHT22;39139;53.144;6.244;2022-09-09T06:22:38;14.40;99.90
51733;DHT22;39139;53.144;6.244;2022-09-09T06:25:04;14.40;99.90
51733;DHT22;39139;53.144;6.244;2022-09-09T06:27:30;14.40;99.90
51733;DHT22;39139;53.144;6.244;2022-09-09T06:29:56;15.10;99.90
51733;DHT22;39139;53.144;6.244;2022-09-09T06:32:21;14.40;99.90
51733;DHT22;39139;53.144;6.244;2022-09-09T06:34:47;14.60;99.90
51733;DHT22;39139;53.144;6.244;2022-09-09T06:37:14;14.50;99.90
51733;DHT22;39139;53.144;6.244;2022-09-09T06:39:40;14.40;99.90
51733;DHT22;39139;53.144;6.244;2022-09-09T06:42:06;14.90;99.90
51733;DHT22;39139;53.144;6.244;2022-09-09T06:44:33;14.50;99.90
51733;DHT22;39139;53.144;6.244;2022-09-09T06:46:59;15.00;99.90
51733;DHT22;39139;53.144;6.244;2022-09-09T06:49:25;14.60;99.90
51733;DHT22;39139;53.144;6.244;2022-09-09T06:51:50;15.10;99.90
51733;DHT22;39139;53.144;6.244;2022-09-09T06:54:17;14.60;99.90
51733;DHT22;39139;53.144;6.244;2022-09-09T06:56:43;14.60;99.90
51733;DHT22;39139;53.144;6.244;2022-09-09T06:59:11;14.60;99.90
51733;DHT22;39139;53.144;6.244;2022-09-09T07:01:42;14.70;99.90
51733;DHT22;39139;53.144;6.244;2022-09-09T07:04:09;14.60;99.90
51733;DHT22;39139;53.144;6.244;2022-09-09T07:06:44;14.70;99.90
51733;DHT22;39139;53.144;6.244;2022-09-09T07:09:14;14.70;99.90
51733;DHT22;39139;53.144;6.244;2022-09-09T07:11:43;14.80;99.90
51733;DHT22;39139;53.144;6.244;2022-09-09T07:14:10;14.70;99.90
51733;DHT22;39139;53.144;6.244;2022-09-09T07:16:42;14.70;99.90
51733;DHT22;39139;53.144;6.244;2022-09-09T07:19:08;14.80;99.90
51733;DHT22;39139;53.144;6.244;2022-09-09T07:21:34;15.50;99.90
51733;DHT22;39139;53.144;6.244;2022-09-09T07:24:00;15.00;99.90
51733;DHT22;39139;53.144;6.244;2022-09-09T07:26:29;14.90;99.90
51733;DHT22;39139;53.144;6.244;2022-09-09T07:28:55;15.50;99.90
51733;DHT22;39139;53.144;6.244;2022-09-09T07:31:26;14.90;99.90
51733;DHT22;39139;53.144;6.244;2022-09-09T07:33:52;15.40;99.90
51733;DHT22;39139;53.144;6.244;2022-09-09T07:36:35;14.90;99.90
51733;DHT22;39139;53.144;6.244;2022-09-09T07:39:07;15.00;99.90
51733;DHT22;39139;53.144;6.244;2022-09-09T07:41:38;15.10;99.90
51733;DHT22;39139;53.144;6.244;2022-09-09T07:44:07;15.10;99.90
51733;DHT22;39139;53.144;6.244;2022-09-09T07:46:34;15.10;99.90
51733;DHT22;39139;53.144;6.244;2022-09-09T07:49:00;15.10;99.90
51733;DHT22;39139;53.144;6.244;2022-09-09T07:51:29;15.10;99.90
51733;DHT22;39139;53.144;6.244;2022-09-09T07:53:57;15.30;99.90
51733;DHT22;39139;53.144;6.244;2022-09-09T07:56:27;15.20;99.90
51733;DHT22;39139;53.144;6.244;2022-09-09T07:58:55;15.30;99.90
51733;DHT22;39139;53.144;6.244;2022-09-09T08:01:22;15.40;99.90
51733;DHT22;39139;53.144;6.244;2022-09-09T08:03:54;15.30;99.90
51733;DHT22;39139;53.144;6.244;2022-09-09T08:06:20;15.40;99.90
51733;DHT22;39139;53.144;6.244;2022-09-09T08:08:50;15.50;99.90
51733;DHT22;39139;53.144;6.244;2022-09-09T08:11:16;15.50;99.90
51733;DHT22;39139;53.144;6.244;2022-09-09T08:13:43;15.60;99.90
51733;DHT22;39139;53.144;6.244;2022-09-09T08:16:11;16.00;99.90
51733;DHT22;39139;53.144;6.244;2022-09-09T08:18:38;15.70;99.90
51733;DHT22;39139;53.144;6.244;2022-09-09T08:21:16;15.90;99.90
51733;DHT22;39139;53.144;6.244;2022-09-09T08:23:44;17.10;99.90
51733;DHT22;39139;53.144;6.244;2022-09-09T08:26:13;16.10;99.90
51733;DHT22;39139;53.144;6.244;2022-09-09T08:28:40;16.20;99.90
51733;DHT22;39139;53.144;6.244;2022-09-09T08:31:36;16.20;99.90
51733;DHT22;39139;53.144;6.244;2022-09-09T08:34:04;16.20;99.90
51733;DHT22;39139;53.144;6.244;2022-09-09T08:36:32;16.40;99.90
51733;DHT22;39139;53.144;6.244;2022-09-09T08:39:02;17.10;99.90
51733;DHT22;39139;53.144;6.244;2022-09-09T08:47:02;16.60;99.90
51733;DHT22;39139;53.144;6.244;2022-09-09T08:51:56;16.80;99.90
51733;DHT22;39139;53.144;6.244;2022-09-09T08:54:23;17.10;99.90
51733;DHT22;39139;53.144;6.244;2022-09-09T08:56:49;16.90;99.90
51733;DHT22;39139;53.144;6.244;2022-09-09T08:59:17;16.80;99.90
51733;DHT22;39139;53.144;6.244;2022-09-09T09:04:49;17.00;99.90
51733;DHT22;39139;53.144;6.244;2022-09-09T09:10:10;17.20;99.90
51733;DHT22;39139;53.144;6.244;2022-09-09T09:12:43;17.20;99.90
51733;DHT22;39139;53.144;6.244;2022-09-09T09:15:23;17.40;99.90
51733;DHT22;39139;53.144;6.244;2022-09-09T09:17:49;17.30;99.90
51733;DHT22;39139;53.144;6.244;2022-09-09T09:20:16;17.50;99.90
51733;DHT22;39139;53.144;6.244;2022-09-09T09:22:51;17.40;99.90
51733;DHT22;39139;53.144;6.244;2022-09-09T09:25:22;17.30;99.90
51733;DHT22;39139;53.144;6.244;2022-09-09T09:28:15;17.30;99.90
51733;DHT22;39139;53.144;6.244;2022-09-09T09:31:11;17.40;99.90
51733;DHT22;39139;53.144;6.244;2022-09-09T09:36:07;17.50;99.90
51733;DHT22;39139;53.144;6.244;2022-09-09T09:38:34;17.50;99.90
51733;DHT22;39139;53.144;6.244;2022-09-09T09:41:00;17.80;99.90
51733;DHT22;39139;53.144;6.244;2022-09-09T09:43:37;18.50;99.90
51733;DHT22;39139;53.144;6.244;2022-09-09T09:46:16;17.50;99.90
51733;DHT22;39139;53.144;6.244;2022-09-09T09:48:43;17.50;99.90
51733;DHT22;39139;53.144;6.244;2022-09-09T09:51:14;17.50;99.90
51733;DHT22;39139;53.144;6.244;2022-09-09T09:53:42;17.50;99.90
51733;DHT22;39139;53.144;6.244;2022-09-09T09:56:12;18.20;99.90
51733;DHT22;39139;53.144;6.244;2022-09-09T10:01:24;17.50;99.90
51733;DHT22;39139;53.144;6.244;2022-09-09T10:04:15;17.50;99.90
51733;DHT22;39139;53.144;6.244;2022-09-09T10:06:41;17.50;99.90
51733;DHT22;39139;53.144;6.244;2022-09-09T10:09:29;17.50;99.90
51733;DHT22;39139;53.144;6.244;2022-09-09T10:12:30;17.50;99.90
51733;DHT22;39139;53.144;6.244;2022-09-09T10:17:54;17.80;99.90
51733;DHT22;39139;53.144;6.244;2022-09-09T10:26:27;18.50;99.90
51733;DHT22;39139;53.144;6.244;2022-09-09T10:29:20;18.50;99.90
51733;DHT22;39139;53.144;6.244;2022-09-09T10:35:29;18.40;99.90
51733;DHT22;39139;53.144;6.244;2022-09-09T10:38:10;18.40;99.90
51733;DHT22;39139;53.144;6.244;2022-09-09T10:46:15;18.70;99.90
51733;DHT22;39139;53.144;6.244;2022-09-09T10:49:18;18.90;99.90
51733;DHT22;39139;53.144;6.244;2022-09-09T10:55:02;19.30;99.90
51733;DHT22;39139;53.144;6.244;2022-09-09T11:00:06;19.20;99.90
51733;DHT22;39139;53.144;6.244;2022-09-09T11:02:40;19.10;99.90
51733;DHT22;39139;53.144;6.244;2022-09-09T11:06:12;19.00;99.90
51733;DHT22;39139;53.144;6.244;2022-09-09T11:08:38;18.80;99.90
51733;DHT22;39139;53.144;6.244;2022-09-09T11:11:20;18.80;99.90
51733;DHT22;39139;53.144;6.244;2022-09-09T11:13:55;18.60;99.90
51733;DHT22;39139;53.144;6.244;2022-09-09T11:25:21;18.60;99.90
51733;DHT22;39139;53.144;6.244;2022-09-09T11:36:30;18.60;99.90
51733;DHT22;39139;53.144;6.244;2022-09-09T11:41:52;18.50;99.90
51733;DHT22;39139;53.144;6.244;2022-09-09T11:44:26;18.60;99.90
51733;DHT22;39139;53.144;6.244;2022-09-09T11:46:53;18.50;99.90
51733;DHT22;39139;53.144;6.244;2022-09-09T11:52:11;18.70;99.90
51733;DHT22;39139;53.144;6.244;2022-09-09T11:54:46;18.60;99.90
51733;DHT22;39139;53.144;6.244;2022-09-09T11:57:36;18.60;99.90
51733;DHT22;39139;53.144;6.244;2022-09-09T12:00:03;18.50;99.90
51733;DHT22;39139;53.144;6.244;2022-09-09T12:02:29;18.60;99.90
51733;DHT22;39139;53.144;6.244;2022-09-09T12:05:08;18.60;99.90
51733;DHT22;39139;53.144;6.244;2022-09-09T12:07:54;18.60;99.90
51733;DHT22;39139;53.144;6.244;2022-09-09T12:10:28;18.60;99.90
51733;DHT22;39139;53.144;6.244;2022-09-09T12:12:54;18.60;99.90
51733;DHT22;39139;53.144;6.244;2022-09-09T12:15:27;18.50;99.90
51733;DHT22;39139;53.144;6.244;2022-09-09T12:17:56;18.50;99.90
51733;DHT22;39139;53.144;6.244;2022-09-09T12:20:30;19.00;99.90
51733;DHT22;39139;53.144;6.244;2022-09-09T12:28:21;19.40;99.90
51733;DHT22;39139;53.144;6.244;2022-09-09T12:33:37;19.40;99.90
51733;DHT22;39139;53.144;6.244;2022-09-09T12:36:11;19.40;99.90
51733;DHT22;39139;53.144;6.244;2022-09-09T12:38:40;19.40;99.90
51733;DHT22;39139;53.144;6.244;2022-09-09T12:41:06;19.50;99.90
51733;DHT22;39139;53.144;6.244;2022-09-09T12:43:45;20.10;99.90
51733;DHT22;39139;53.144;6.244;2022-09-09T12:46:58;19.70;99.90
51733;DHT22;39139;53.144;6.244;2022-09-09T12:49:04;19.80;99.90
51733;DHT22;39139;53.144;6.244;2022-09-09T12:51:33;20.00;99.90
51733;DHT22;39139;53.144;6.244;2022-09-09T12:53:59;19.90;99.90
51733;DHT22;39139;53.144;6.244;2022-09-09T12:56:28;20.60;99.90
51733;DHT22;39139;53.144;6.244;2022-09-09T12:58:56;20.20;99.90
51733;DHT22;39139;53.144;6.244;2022-09-09T13:01:27;20.30;99.90
51733;DHT22;39139;53.144;6.244;2022-09-09T13:03:54;20.50;99.90
51733;DHT22;39139;53.144;6.244;2022-09-09T13:06:25;20.20;99.90
51733;DHT22;39139;53.144;6.244;2022-09-09T13:08:52;20.10;99.90
51733;DHT22;39139;53.144;6.244;2022-09-09T13:11:25;20.10;99.90
51733;DHT22;39139;53.144;6.244;2022-09-09T13:13:56;20.70;99.90
51733;DHT22;39139;53.144;6.244;2022-09-09T13:16:33;20.00;99.90
51733;DHT22;39139;53.144;6.244;2022-09-09T13:19:02;20.10;99.90
51733;DHT22;39139;53.144;6.244;2022-09-09T13:21:36;19.90;99.90
51733;DHT22;39139;53.144;6.244;2022-09-09T13:24:04;19.70;99.90
51733;DHT22;39139;53.144;6.244;2022-09-09T13:26:33;19.60;99.90
51733;DHT22;39139;53.144;6.244;2022-09-09T13:29:29;19.40;99.90
51733;DHT22;39139;53.144;6.244;2022-09-09T13:32:15;19.20;99.90
51733;DHT22;39139;53.144;6.244;2022-09-09T13:34:53;19.40;99.90
51733;DHT22;39139;53.144;6.244;2022-09-09T13:37:33;19.70;99.90
51733;DHT22;39139;53.144;6.244;2022-09-09T13:40:00;19.90;99.90
51733;DHT22;39139;53.144;6.244;2022-09-09T13:42:30;20.10;99.90
51733;DHT22;39139;53.144;6.244;2022-09-09T13:44:56;20.50;99.90
51733;DHT22;39139;53.144;6.244;2022-09-09T13:47:30;20.70;99.90
51733;DHT22;39139;53.144;6.244;2022-09-09T13:49:57;20.80;99.90
51733;DHT22;39139;53.144;6.244;2022-09-09T13:52:23;21.00;99.90
51733;DHT22;39139;53.144;6.244;2022-09-09T13:54:50;20.50;99.90
51733;DHT22;39139;53.144;6.244;2022-09-09T13:57:18;21.20;99.90
51733;DHT22;39139;53.144;6.244;2022-09-09T13:59:46;20.40;99.90
51733;DHT22;39139;53.144;6.244;2022-09-09T14:02:12;20.30;99.90
51733;DHT22;39139;53.144;6.244;2022-09-09T14:04:38;20.00;99.90
51733;DHT22;39139;53.144;6.244;2022-09-09T14:07:11;19.80;99.90
51733;DHT22;39139;53.144;6.244;2022-09-09T14:09:37;19.90;99.90
51733;DHT22;39139;53.144;6.244;2022-09-09T14:12:03;19.50;99.90
51733;DHT22;39139;53.144;6.244;2022-09-09T14:14:30;19.50;99.90
51733;DHT22;39139;53.144;6.244;2022-09-09T14:16:55;19.60;99.90
51733;DHT22;39139;53.144;6.244;2022-09-09T14:19:21;19.70;99.90
51733;DHT22;39139;53.144;6.244;2022-09-09T14:21:46;19.80;99.90
51733;DHT22;39139;53.144;6.244;2022-09-09T14:24:12;19.90;99.90
51733;DHT22;39139;53.144;6.244;2022-09-09T14:26:38;20.00;99.90
51733;DHT22;39139;53.144;6.244;2022-09-09T14:29:03;19.90;99.90
51733;DHT22;39139;53.144;6.244;2022-09-09T14:31:29;19.80;99.90
51733;DHT22;39139;53.144;6.244;2022-09-09T14:33:55;19.60;99.90
51733;DHT22;39139;53.144;6.244;2022-09-09T14:36:21;19.50;99.90
51733;DHT22;39139;53.144;6.244;2022-09-09T14:38:46;19.60;99.90
51733;DHT22;39139;53.144;6.244;2022-09-09T14:41:17;19.50;99.90
51733;DHT22;39139;53.144;6.244;2022-09-09T14:43:44;19.50;99.90
51733;DHT22;39139;53.144;6.244;2022-09-09T14:46:14;19.60;99.90
51733;DHT22;39139;53.144;6.244;2022-09-09T14:48:41;19.60;99.90
51733;DHT22;39139;53.144;6.244;2022-09-09T14:51:08;19.60;99.90
51733;DHT22;39139;53.144;6.244;2022-09-09T14:53:34;19.50;99.90
51733;DHT22;39139;53.144;6.244;2022-09-09T14:56:08;19.50;99.90
51733;DHT22;39139;53.144;6.244;2022-09-09T14:58:35;19.50;99.90
51733;DHT22;39139;53.144;6.244;2022-09-09T15:01:06;19.40;99.90
51733;DHT22;39139;53.144;6.244;2022-09-09T15:03:32;19.40;99.90
51733;DHT22;39139;53.144;6.244;2022-09-09T15:05:58;19.20;99.90
51733;DHT22;39139;53.144;6.244;2022-09-09T15:08:29;19.10;99.90
51733;DHT22;39139;53.144;6.244;2022-09-09T15:10:59;19.00;99.90
51733;DHT22;39139;53.144;6.244;2022-09-09T15:13:26;19.00;99.90
51733;DHT22;39139;53.144;6.244;2022-09-09T15:15:51;19.00;99.90
51733;DHT22;39139;53.144;6.244;2022-09-09T15:18:20;18.90;99.90
51733;DHT22;39139;53.144;6.244;2022-09-09T15:20:46;19.00;99.90
51733;DHT22;39139;53.144;6.244;2022-09-09T15:23:13;18.90;99.90
51733;DHT22;39139;53.144;6.244;2022-09-09T15:26:00;18.90;99.90
51733;DHT22;39139;53.144;6.244;2022-09-09T15:28:25;19.00;99.90
51733;DHT22;39139;53.144;6.244;2022-09-09T15:30:52;19.00;99.90
51733;DHT22;39139;53.144;6.244;2022-09-09T15:33:19;18.70;99.90
51733;DHT22;39139;53.144;6.244;2022-09-09T15:35:45;18.70;99.90
51733;DHT22;39139;53.144;6.244;2022-09-09T15:38:11;18.70;99.90
51733;DHT22;39139;53.144;6.244;2022-09-09T15:40:39;18.50;99.90
51733;DHT22;39139;53.144;6.244;2022-09-09T15:43:05;18.60;99.90
51733;DHT22;39139;53.144;6.244;2022-09-09T15:45:32;19.40;99.90
51733;DHT22;39139;53.144;6.244;2022-09-09T15:47:59;18.30;99.90
51733;DHT22;39139;53.144;6.244;2022-09-09T15:50:25;18.20;99.90
51733;DHT22;39139;53.144;6.244;2022-09-09T15:52:51;18.10;99.90
51733;DHT22;39139;53.144;6.244;2022-09-09T15:55:19;17.90;99.90
51733;DHT22;39139;53.144;6.244;2022-09-09T15:57:45;18.20;99.90
51733;DHT22;39139;53.144;6.244;2022-09-09T16:00:12;17.70;99.90
51733;DHT22;39139;53.144;6.244;2022-09-09T16:02:39;17.60;99.90
51733;DHT22;39139;53.144;6.244;2022-09-09T16:05:05;17.60;99.90
51733;DHT22;39139;53.144;6.244;2022-09-09T16:07:31;17.60;99.90
51733;DHT22;39139;53.144;6.244;2022-09-09T16:09:56;17.90;99.90
51733;DHT22;39139;53.144;6.244;2022-09-09T16:12:22;18.40;99.90
51733;DHT22;39139;53.144;6.244;2022-09-09T16:14:48;17.70;99.90
51733;DHT22;39139;53.144;6.244;2022-09-09T16:17:13;18.00;99.90
51733;DHT22;39139;53.144;6.244;2022-09-09T16:19:40;17.80;99.90
51733;DHT22;39139;53.144;6.244;2022-09-09T16:22:06;17.70;99.90
51733;DHT22;39139;53.144;6.244;2022-09-09T16:24:32;17.80;99.90
51733;DHT22;39139;53.144;6.244;2022-09-09T16:26:58;17.70;99.90
51733;DHT22;39139;53.144;6.244;2022-09-09T16:29:24;17.80;99.90
51733;DHT22;39139;53.144;6.244;2022-09-09T16:31:53;17.80;99.90
51733;DHT22;39139;53.144;6.244;2022-09-09T16:34:19;18.00;99.90
51733;DHT22;39139;53.144;6.244;2022-09-09T16:36:46;17.80;99.90
51733;DHT22;39139;53.144;6.244;2022-09-09T16:39:16;17.80;99.90
51733;DHT22;39139;53.144;6.244;2022-09-09T16:41:42;18.00;99.90
51733;DHT22;39139;53.144;6.244;2022-09-09T16:44:10;17.80;99.90
51733;DHT22;39139;53.144;6.244;2022-09-09T16:46:38;17.80;99.90
51733;DHT22;39139;53.144;6.244;2022-09-09T16:49:06;17.80;99.90
51733;DHT22;39139;53.144;6.244;2022-09-09T16:51:38;17.70;99.90
51733;DHT22;39139;53.144;6.244;2022-09-09T16:54:05;17.80;99.90
51733;DHT22;39139;53.144;6.244;2022-09-09T16:56:33;17.70;99.90
51733;DHT22;39139;53.144;6.244;2022-09-09T16:59:04;17.80;99.90
51733;DHT22;39139;53.144;6.244;2022-09-09T17:01:35;17.70;99.90
51733;DHT22;39139;53.144;6.244;2022-09-09T17:04:05;17.70;99.90
51733;DHT22;39139;53.144;6.244;2022-09-09T17:06:31;17.60;99.90
51733;DHT22;39139;53.144;6.244;2022-09-09T17:09:02;17.50;99.90
51733;DHT22;39139;53.144;6.244;2022-09-09T17:11:29;17.60;99.90
51733;DHT22;39139;53.144;6.244;2022-09-09T17:13:56;17.50;99.90
51733;DHT22;39139;53.144;6.244;2022-09-09T17:16:25;17.50;99.90
51733;DHT22;39139;53.144;6.244;2022-09-09T17:18:53;17.50;99.90
51733;DHT22;39139;53.144;6.244;2022-09-09T17:21:22;17.40;99.90
51733;DHT22;39139;53.144;6.244;2022-09-09T17:23:49;17.80;99.90
51733;DHT22;39139;53.144;6.244;2022-09-09T17:26:17;17.40;99.90
51733;DHT22;39139;53.144;6.244;2022-09-09T17:28:43;17.30;99.90
51733;DHT22;39139;53.144;6.244;2022-09-09T17:31:17;17.30;99.90
51733;DHT22;39139;53.144;6.244;2022-09-09T17:33:49;17.30;99.90
51733;DHT22;39139;53.144;6.244;2022-09-09T17:36:33;17.40;99.90
51733;DHT22;39139;53.144;6.244;2022-09-09T17:39:00;17.30;99.90
51733;DHT22;39139;53.144;6.244;2022-09-09T17:41:29;17.30;99.90
51733;DHT22;39139;53.144;6.244;2022-09-09T17:43:55;17.40;99.90
51733;DHT22;39139;53.144;6.244;2022-09-09T17:46:27;17.20;99.90